sensor_id;sensor_type;location;lat;lon;timestamp;P1;durP1;ratioP1;P2;durP2;ratioP2
11078;SDS011;5592;49.234;7.268;2023-07-29T00:00:45;4.77;;;3.40;;
11078;SDS011;5592;49.234;7.268;2023-07-29T00:03:11;3.43;;;3.07;;
11078;SDS011;5592;49.234;7.268;2023-07-29T00:05:37;6.57;;;3.40;;
11078;SDS011;5592;49.234;7.268;2023-07-29T00:08:03;4.07;;;3.33;;
11078;SDS011;5592;49.234;7.268;2023-07-29T00:10:31;4.73;;;3.50;;
11078;SDS011;5592;49.234;7.268;2023-07-29T00:12:57;3.80;;;3.47;;
11078;SDS011;5592;49.234;7.268;2023-07-29T00:15:22;3.93;;;3.50;;
11078;SDS011;5592;49.234;7.268;2023-07-29T00:17:48;3.90;;;3.23;;
11078;SDS011;5592;49.234;7.268;2023-07-29T00:20:14;5.53;;;3.30;;
11078;SDS011;5592;49.234;7.268;2023-07-29T00:22:40;3.03;;;2.83;;
11078;SDS011;5592;49.234;7.268;2023-07-29T00:25:06;8.47;;;3.00;;
11078;SDS011;5592;49.234;7.268;2023-07-29T00:27:32;9.87;;;3.20;;
11078;SDS011;5592;49.234;7.268;2023-07-29T00:29:57;3.00;;;2.70;;
11078;SDS011;5592;49.234;7.268;2023-07-29T00:32:23;3.40;;;2.70;;
11078;SDS011;5592;49.234;7.268;2023-07-29T00:34:48;2.77;;;2.57;;
11078;SDS011;5592;49.234;7.268;2023-07-29T00:37:14;2.53;;;2.33;;
11078;SDS011;5592;49.234;7.268;2023-07-29T00:39:39;4.10;;;2.90;;
11078;SDS011;5592;49.234;7.268;2023-07-29T00:42:05;4.60;;;2.93;;
11078;SDS011;5592;49.234;7.268;2023-07-29T00:44:31;4.03;;;2.00;;
11078;SDS011;5592;49.234;7.268;2023-07-29T00:46:57;3.37;;;2.67;;
11078;SDS011;5592;49.234;7.268;2023-07-29T00:49:23;3.80;;;2.10;;
11078;SDS011;5592;49.234;7.268;2023-07-29T00:51:49;5.30;;;2.37;;
11078;SDS011;5592;49.234;7.268;2023-07-29T00:54:15;5.60;;;2.23;;
11078;SDS011;5592;49.234;7.268;2023-07-29T00:56:40;2.80;;;2.40;;
11078;SDS011;5592;49.234;7.268;2023-07-29T00:59:06;5.53;;;2.37;;
11078;SDS011;5592;49.234;7.268;2023-07-29T01:01:32;2.63;;;2.30;;
11078;SDS011;5592;49.234;7.268;2023-07-29T01:03:58;2.40;;;2.20;;
11078;SDS011;5592;49.234;7.268;2023-07-29T01:06:27;6.33;;;2.03;;
11078;SDS011;5592;49.234;7.268;2023-07-29T01:09:06;2.90;;;1.80;;
11078;SDS011;5592;49.234;7.268;2023-07-29T01:11:46;6.13;;;1.80;;
11078;SDS011;5592;49.234;7.268;2023-07-29T01:17:02;3.67;;;1.70;;
11078;SDS011;5592;49.234;7.268;2023-07-29T01:21:56;2.73;;;1.50;;
11078;SDS011;5592;49.234;7.268;2023-07-29T01:24:23;4.10;;;1.90;;
11078;SDS011;5592;49.234;7.268;2023-07-29T01:26:48;2.10;;;1.77;;
11078;SDS011;5592;49.234;7.268;2023-07-29T01:29:14;6.00;;;2.13;;
11078;SDS011;5592;49.234;7.268;2023-07-29T01:31:42;2.00;;;1.80;;
11078;SDS011;5592;49.234;7.268;2023-07-29T01:34:10;2.53;;;1.90;;
11078;SDS011;5592;49.234;7.268;2023-07-29T01:36:47;1.90;;;1.70;;
11078;SDS011;5592;49.234;7.268;2023-07-29T01:39:15;2.77;;;1.60;;
11078;SDS011;5592;49.234;7.268;2023-07-29T01:41:43;1.80;;;1.70;;
11078;SDS011;5592;49.234;7.268;2023-07-29T01:44:10;5.20;;;1.70;;
11078;SDS011;5592;49.234;7.268;2023-07-29T01:46:36;2.07;;;1.83;;
11078;SDS011;5592;49.234;7.268;2023-07-29T01:49:02;2.03;;;1.83;;
11078;SDS011;5592;49.234;7.268;2023-07-29T01:51:27;7.30;;;1.77;;
11078;SDS011;5592;49.234;7.268;2023-07-29T01:53:53;3.70;;;1.57;;
11078;SDS011;5592;49.234;7.268;2023-07-29T01:56:20;2.50;;;2.30;;
11078;SDS011;5592;49.234;7.268;2023-07-29T01:58:46;3.47;;;1.50;;
11078;SDS011;5592;49.234;7.268;2023-07-29T02:01:11;2.27;;;1.80;;
11078;SDS011;5592;49.234;7.268;2023-07-29T02:03:37;2.57;;;1.90;;
11078;SDS011;5592;49.234;7.268;2023-07-29T02:06:03;1.87;;;1.67;;
11078;SDS011;5592;49.234;7.268;2023-07-29T02:08:28;2.70;;;1.80;;
11078;SDS011;5592;49.234;7.268;2023-07-29T02:10:55;4.77;;;2.20;;
11078;SDS011;5592;49.234;7.268;2023-07-29T02:13:21;2.33;;;2.03;;
11078;SDS011;5592;49.234;7.268;2023-07-29T02:15:46;1.80;;;1.70;;
11078;SDS011;5592;49.234;7.268;2023-07-29T02:18:12;2.57;;;1.80;;
11078;SDS011;5592;49.234;7.268;2023-07-29T02:20:37;2.73;;;1.60;;
11078;SDS011;5592;49.234;7.268;2023-07-29T02:23:03;4.00;;;2.23;;
11078;SDS011;5592;49.234;7.268;2023-07-29T02:25:28;1.80;;;1.70;;
11078;SDS011;5592;49.234;7.268;2023-07-29T02:27:54;1.83;;;1.60;;
11078;SDS011;5592;49.234;7.268;2023-07-29T02:30:20;4.90;;;1.70;;
11078;SDS011;5592;49.234;7.268;2023-07-29T02:32:46;4.80;;;1.83;;
11078;SDS011;5592;49.234;7.268;2023-07-29T02:35:12;3.93;;;2.00;;
11078;SDS011;5592;49.234;7.268;2023-07-29T02:37:37;2.33;;;2.00;;
11078;SDS011;5592;49.234;7.268;2023-07-29T02:40:03;2.53;;;1.70;;
11078;SDS011;5592;49.234;7.268;2023-07-29T02:42:29;5.13;;;1.90;;
11078;SDS011;5592;49.234;7.268;2023-07-29T02:44:55;2.70;;;1.30;;
11078;SDS011;5592;49.234;7.268;2023-07-29T02:47:20;2.23;;;1.90;;
11078;SDS011;5592;49.234;7.268;2023-07-29T02:49:46;2.60;;;1.67;;
11078;SDS011;5592;49.234;7.268;2023-07-29T02:52:11;1.90;;;1.70;;
11078;SDS011;5592;49.234;7.268;2023-07-29T02:54:37;3.13;;;1.97;;
11078;SDS011;5592;49.234;7.268;2023-07-29T02:57:02;3.70;;;2.00;;
11078;SDS011;5592;49.234;7.268;2023-07-29T02:59:29;3.77;;;1.80;;
11078;SDS011;5592;49.234;7.268;2023-07-29T03:01:54;4.93;;;2.00;;
11078;SDS011;5592;49.234;7.268;2023-07-29T03:04:20;6.03;;;1.87;;
11078;SDS011;5592;49.234;7.268;2023-07-29T03:06:45;4.10;;;2.00;;
11078;SDS011;5592;49.234;7.268;2023-07-29T03:09:13;3.60;;;1.73;;
11078;SDS011;5592;49.234;7.268;2023-07-29T03:11:38;4.40;;;1.70;;
11078;SDS011;5592;49.234;7.268;2023-07-29T03:14:04;1.77;;;1.67;;
11078;SDS011;5592;49.234;7.268;2023-07-29T03:16:29;2.57;;;1.97;;
11078;SDS011;5592;49.234;7.268;2023-07-29T03:18:55;6.10;;;2.20;;
11078;SDS011;5592;49.234;7.268;2023-07-29T03:21:20;2.93;;;2.10;;
11078;SDS011;5592;49.234;7.268;2023-07-29T03:23:46;3.40;;;2.07;;
11078;SDS011;5592;49.234;7.268;2023-07-29T03:26:11;3.70;;;1.70;;
11078;SDS011;5592;49.234;7.268;2023-07-29T03:28:38;3.60;;;2.10;;
11078;SDS011;5592;49.234;7.268;2023-07-29T03:31:05;2.47;;;1.90;;
11078;SDS011;5592;49.234;7.268;2023-07-29T03:33:31;3.60;;;2.07;;
11078;SDS011;5592;49.234;7.268;2023-07-29T03:35:57;2.93;;;1.73;;
11078;SDS011;5592;49.234;7.268;2023-07-29T03:38:22;3.00;;;1.80;;
11078;SDS011;5592;49.234;7.268;2023-07-29T03:40:48;4.13;;;2.20;;
11078;SDS011;5592;49.234;7.268;2023-07-29T03:43:14;2.80;;;1.80;;
11078;SDS011;5592;49.234;7.268;2023-07-29T03:45:39;2.87;;;1.70;;
11078;SDS011;5592;49.234;7.268;2023-07-29T03:48:05;2.87;;;1.60;;
11078;SDS011;5592;49.234;7.268;2023-07-29T03:50:32;2.13;;;1.80;;
11078;SDS011;5592;49.234;7.268;2023-07-29T03:53:00;5.43;;;2.00;;
11078;SDS011;5592;49.234;7.268;2023-07-29T03:55:26;3.03;;;2.27;;
11078;SDS011;5592;49.234;7.268;2023-07-29T03:57:51;2.33;;;2.00;;
11078;SDS011;5592;49.234;7.268;2023-07-29T04:00:17;2.67;;;1.97;;
11078;SDS011;5592;49.234;7.268;2023-07-29T04:02:42;2.40;;;2.00;;
11078;SDS011;5592;49.234;7.268;2023-07-29T04:05:10;4.30;;;2.20;;
11078;SDS011;5592;49.234;7.268;2023-07-29T04:07:36;2.50;;;2.10;;
11078;SDS011;5592;49.234;7.268;2023-07-29T04:10:02;3.30;;;1.80;;
11078;SDS011;5592;49.234;7.268;2023-07-29T04:12:28;2.47;;;2.27;;
11078;SDS011;5592;49.234;7.268;2023-07-29T04:14:53;2.70;;;2.13;;
11078;SDS011;5592;49.234;7.268;2023-07-29T04:17:19;4.30;;;1.80;;
11078;SDS011;5592;49.234;7.268;2023-07-29T04:19:44;5.20;;;2.40;;
11078;SDS011;5592;49.234;7.268;2023-07-29T04:22:10;2.43;;;2.23;;
11078;SDS011;5592;49.234;7.268;2023-07-29T04:24:35;2.60;;;2.27;;
11078;SDS011;5592;49.234;7.268;2023-07-29T04:27:01;2.43;;;2.23;;
11078;SDS011;5592;49.234;7.268;2023-07-29T04:29:27;2.70;;;2.07;;
11078;SDS011;5592;49.234;7.268;2023-07-29T04:31:53;2.80;;;2.20;;
11078;SDS011;5592;49.234;7.268;2023-07-29T04:34:19;2.43;;;2.20;;
11078;SDS011;5592;49.234;7.268;2023-07-29T04:36:45;3.20;;;2.20;;
11078;SDS011;5592;49.234;7.268;2023-07-29T04:39:11;10.87;;;2.80;;
11078;SDS011;5592;49.234;7.268;2023-07-29T04:41:37;3.53;;;2.30;;
11078;SDS011;5592;49.234;7.268;2023-07-29T04:44:02;3.37;;;2.13;;
11078;SDS011;5592;49.234;7.268;2023-07-29T04:46:28;3.27;;;2.13;;
11078;SDS011;5592;49.234;7.268;2023-07-29T04:48:54;2.83;;;2.60;;
11078;SDS011;5592;49.234;7.268;2023-07-29T04:51:19;3.10;;;2.37;;
11078;SDS011;5592;49.234;7.268;2023-07-29T04:53:46;6.07;;;2.10;;
11078;SDS011;5592;49.234;7.268;2023-07-29T04:56:11;3.10;;;2.67;;
11078;SDS011;5592;49.234;7.268;2023-07-29T04:58:37;6.73;;;2.53;;
11078;SDS011;5592;49.234;7.268;2023-07-29T05:01:03;4.37;;;2.30;;
11078;SDS011;5592;49.234;7.268;2023-07-29T05:03:29;2.20;;;2.00;;
11078;SDS011;5592;49.234;7.268;2023-07-29T05:05:54;4.90;;;2.30;;
11078;SDS011;5592;49.234;7.268;2023-07-29T05:08:22;2.57;;;1.90;;
11078;SDS011;5592;49.234;7.268;2023-07-29T05:10:50;3.43;;;2.00;;
11078;SDS011;5592;49.234;7.268;2023-07-29T05:13:17;2.10;;;1.90;;
11078;SDS011;5592;49.234;7.268;2023-07-29T05:15:42;2.90;;;2.20;;
11078;SDS011;5592;49.234;7.268;2023-07-29T05:18:08;2.40;;;2.20;;
11078;SDS011;5592;49.234;7.268;2023-07-29T05:20:33;4.50;;;2.10;;
11078;SDS011;5592;49.234;7.268;2023-07-29T05:22:59;2.17;;;1.97;;
11078;SDS011;5592;49.234;7.268;2023-07-29T05:25:25;2.60;;;2.00;;
11078;SDS011;5592;49.234;7.268;2023-07-29T05:27:51;4.90;;;2.07;;
11078;SDS011;5592;49.234;7.268;2023-07-29T05:30:17;3.10;;;2.30;;
11078;SDS011;5592;49.234;7.268;2023-07-29T05:32:42;1.80;;;1.57;;
11078;SDS011;5592;49.234;7.268;2023-07-29T05:35:08;2.27;;;1.83;;
11078;SDS011;5592;49.234;7.268;2023-07-29T05:37:33;1.80;;;1.70;;
11078;SDS011;5592;49.234;7.268;2023-07-29T05:39:59;1.60;;;1.50;;
11078;SDS011;5592;49.234;7.268;2023-07-29T05:42:24;2.30;;;2.10;;
11078;SDS011;5592;49.234;7.268;2023-07-29T05:44:50;1.80;;;1.70;;
11078;SDS011;5592;49.234;7.268;2023-07-29T05:47:16;4.13;;;2.03;;
11078;SDS011;5592;49.234;7.268;2023-07-29T05:49:41;2.70;;;1.87;;
11078;SDS011;5592;49.234;7.268;2023-07-29T05:52:07;2.00;;;1.80;;
11078;SDS011;5592;49.234;7.268;2023-07-29T05:54:32;2.57;;;2.10;;
11078;SDS011;5592;49.234;7.268;2023-07-29T05:56:58;1.90;;;1.80;;
11078;SDS011;5592;49.234;7.268;2023-07-29T05:59:24;3.37;;;1.90;;
11078;SDS011;5592;49.234;7.268;2023-07-29T06:01:49;2.43;;;2.07;;
11078;SDS011;5592;49.234;7.268;2023-07-29T06:04:15;4.83;;;2.03;;
11078;SDS011;5592;49.234;7.268;2023-07-29T06:06:41;3.40;;;2.10;;
11078;SDS011;5592;49.234;7.268;2023-07-29T06:09:06;3.43;;;2.37;;
11078;SDS011;5592;49.234;7.268;2023-07-29T06:11:32;3.47;;;2.03;;
11078;SDS011;5592;49.234;7.268;2023-07-29T06:13:57;2.30;;;2.10;;
11078;SDS011;5592;49.234;7.268;2023-07-29T06:16:23;2.83;;;2.10;;
11078;SDS011;5592;49.234;7.268;2023-07-29T06:18:48;3.00;;;1.60;;
11078;SDS011;5592;49.234;7.268;2023-07-29T06:21:14;2.30;;;1.60;;
11078;SDS011;5592;49.234;7.268;2023-07-29T06:23:42;1.63;;;1.53;;
11078;SDS011;5592;49.234;7.268;2023-07-29T06:26:08;2.43;;;2.07;;
11078;SDS011;5592;49.234;7.268;2023-07-29T06:28:34;4.43;;;1.70;;
11078;SDS011;5592;49.234;7.268;2023-07-29T06:30:59;2.77;;;2.20;;
11078;SDS011;5592;49.234;7.268;2023-07-29T06:33:26;3.40;;;1.70;;
11078;SDS011;5592;49.234;7.268;2023-07-29T06:35:51;1.70;;;1.60;;
11078;SDS011;5592;49.234;7.268;2023-07-29T06:38:17;4.63;;;2.30;;
11078;SDS011;5592;49.234;7.268;2023-07-29T06:40:46;9.10;;;2.40;;
11078;SDS011;5592;49.234;7.268;2023-07-29T06:43:12;2.00;;;1.80;;
11078;SDS011;5592;49.234;7.268;2023-07-29T06:45:38;1.80;;;1.70;;
11078;SDS011;5592;49.234;7.268;2023-07-29T06:48:03;2.50;;;1.60;;
11078;SDS011;5592;49.234;7.268;2023-07-29T06:50:29;3.30;;;2.40;;
11078;SDS011;5592;49.234;7.268;2023-07-29T06:52:54;4.13;;;1.97;;
11078;SDS011;5592;49.234;7.268;2023-07-29T06:55:20;2.33;;;2.10;;
11078;SDS011;5592;49.234;7.268;2023-07-29T06:57:45;4.43;;;2.00;;
11078;SDS011;5592;49.234;7.268;2023-07-29T07:00:11;3.50;;;1.83;;
11078;SDS011;5592;49.234;7.268;2023-07-29T07:02:37;2.77;;;1.80;;
11078;SDS011;5592;49.234;7.268;2023-07-29T07:05:02;1.97;;;1.60;;
11078;SDS011;5592;49.234;7.268;2023-07-29T07:07:28;4.60;;;1.40;;
11078;SDS011;5592;49.234;7.268;2023-07-29T07:09:54;6.80;;;1.83;;
11078;SDS011;5592;49.234;7.268;2023-07-29T07:12:19;5.27;;;1.70;;
11078;SDS011;5592;49.234;7.268;2023-07-29T07:14:45;1.50;;;1.40;;
11078;SDS011;5592;49.234;7.268;2023-07-29T07:17:10;4.17;;;2.10;;
11078;SDS011;5592;49.234;7.268;2023-07-29T07:19:36;4.20;;;1.73;;
11078;SDS011;5592;49.234;7.268;2023-07-29T07:22:02;1.77;;;1.63;;
11078;SDS011;5592;49.234;7.268;2023-07-29T07:24:27;10.17;;;2.23;;
11078;SDS011;5592;49.234;7.268;2023-07-29T07:26:56;3.73;;;1.80;;
11078;SDS011;5592;49.234;7.268;2023-07-29T07:29:22;3.70;;;1.60;;
11078;SDS011;5592;49.234;7.268;2023-07-29T07:31:51;2.67;;;1.80;;
11078;SDS011;5592;49.234;7.268;2023-07-29T07:34:17;3.00;;;1.57;;
11078;SDS011;5592;49.234;7.268;2023-07-29T07:36:44;1.87;;;1.57;;
11078;SDS011;5592;49.234;7.268;2023-07-29T07:39:09;4.00;;;1.50;;
11078;SDS011;5592;49.234;7.268;2023-07-29T07:41:35;1.23;;;1.13;;
11078;SDS011;5592;49.234;7.268;2023-07-29T07:44:00;1.67;;;1.50;;
11078;SDS011;5592;49.234;7.268;2023-07-29T07:46:26;2.23;;;1.60;;
11078;SDS011;5592;49.234;7.268;2023-07-29T07:48:53;6.90;;;1.60;;
11078;SDS011;5592;49.234;7.268;2023-07-29T07:51:18;3.23;;;1.67;;
11078;SDS011;5592;49.234;7.268;2023-07-29T07:53:44;4.40;;;1.60;;
11078;SDS011;5592;49.234;7.268;2023-07-29T07:56:22;2.10;;;1.50;;
11078;SDS011;5592;49.234;7.268;2023-07-29T07:58:48;2.80;;;1.50;;
11078;SDS011;5592;49.234;7.268;2023-07-29T08:01:14;2.50;;;1.63;;
11078;SDS011;5592;49.234;7.268;2023-07-29T08:03:39;1.40;;;1.30;;
11078;SDS011;5592;49.234;7.268;2023-07-29T08:06:05;6.40;;;1.70;;
11078;SDS011;5592;49.234;7.268;2023-07-29T08:08:33;8.20;;;1.20;;
11078;SDS011;5592;49.234;7.268;2023-07-29T08:10:59;2.30;;;1.77;;
11078;SDS011;5592;49.234;7.268;2023-07-29T08:13:24;3.40;;;1.60;;
11078;SDS011;5592;49.234;7.268;2023-07-29T08:15:51;3.30;;;1.73;;
11078;SDS011;5592;49.234;7.268;2023-07-29T08:18:17;4.43;;;1.50;;
11078;SDS011;5592;49.234;7.268;2023-07-29T08:20:54;1.90;;;1.37;;
11078;SDS011;5592;49.234;7.268;2023-07-29T08:23:24;2.30;;;1.13;;
11078;SDS011;5592;49.234;7.268;2023-07-29T08:25:53;2.40;;;1.23;;
11078;SDS011;5592;49.234;7.268;2023-07-29T08:28:21;1.50;;;1.40;;
11078;SDS011;5592;49.234;7.268;2023-07-29T08:30:47;2.10;;;1.63;;
11078;SDS011;5592;49.234;7.268;2023-07-29T08:33:13;3.20;;;1.50;;
11078;SDS011;5592;49.234;7.268;2023-07-29T08:35:39;1.40;;;1.30;;
11078;SDS011;5592;49.234;7.268;2023-07-29T08:38:04;11.17;;;1.70;;
11078;SDS011;5592;49.234;7.268;2023-07-29T08:40:30;3.37;;;1.50;;
11078;SDS011;5592;49.234;7.268;2023-07-29T08:42:59;4.77;;;1.30;;
11078;SDS011;5592;49.234;7.268;2023-07-29T08:45:32;1.60;;;1.50;;
11078;SDS011;5592;49.234;7.268;2023-07-29T08:48:00;2.00;;;1.60;;
11078;SDS011;5592;49.234;7.268;2023-07-29T08:50:28;3.30;;;1.60;;
11078;SDS011;5592;49.234;7.268;2023-07-29T08:52:56;6.13;;;1.77;;
11078;SDS011;5592;49.234;7.268;2023-07-29T08:55:22;5.10;;;1.80;;
11078;SDS011;5592;49.234;7.268;2023-07-29T08:57:48;1.40;;;1.30;;
11078;SDS011;5592;49.234;7.268;2023-07-29T09:00:18;3.90;;;1.63;;
11078;SDS011;5592;49.234;7.268;2023-07-29T09:02:44;4.30;;;1.47;;
11078;SDS011;5592;49.234;7.268;2023-07-29T09:05:10;3.37;;;1.70;;
11078;SDS011;5592;49.234;7.268;2023-07-29T09:07:35;2.90;;;1.70;;
11078;SDS011;5592;49.234;7.268;2023-07-29T09:10:02;1.80;;;1.70;;
11078;SDS011;5592;49.234;7.268;2023-07-29T09:12:27;2.10;;;1.90;;
11078;SDS011;5592;49.234;7.268;2023-07-29T09:14:53;3.50;;;1.80;;
11078;SDS011;5592;49.234;7.268;2023-07-29T09:17:19;5.97;;;1.90;;
11078;SDS011;5592;49.234;7.268;2023-07-29T09:19:47;1.70;;;1.60;;
11078;SDS011;5592;49.234;7.268;2023-07-29T09:22:17;1.70;;;1.50;;
11078;SDS011;5592;49.234;7.268;2023-07-29T09:24:44;2.90;;;1.70;;
11078;SDS011;5592;49.234;7.268;2023-07-29T09:27:15;2.03;;;1.60;;
11078;SDS011;5592;49.234;7.268;2023-07-29T09:29:49;3.73;;;1.67;;
11078;SDS011;5592;49.234;7.268;2023-07-29T09:32:18;1.77;;;1.67;;
11078;SDS011;5592;49.234;7.268;2023-07-29T09:34:48;1.70;;;1.60;;
11078;SDS011;5592;49.234;7.268;2023-07-29T09:37:20;1.60;;;1.50;;
11078;SDS011;5592;49.234;7.268;2023-07-29T09:39:47;1.70;;;1.60;;
11078;SDS011;5592;49.234;7.268;2023-07-29T09:42:18;1.63;;;1.53;;
11078;SDS011;5592;49.234;7.268;2023-07-29T09:44:45;2.70;;;1.80;;
11078;SDS011;5592;49.234;7.268;2023-07-29T09:47:18;1.60;;;1.50;;
11078;SDS011;5592;49.234;7.268;2023-07-29T09:49:48;1.67;;;1.57;;
11078;SDS011;5592;49.234;7.268;2023-07-29T09:52:21;2.07;;;1.50;;
11078;SDS011;5592;49.234;7.268;2023-07-29T09:54:48;2.73;;;1.70;;
11078;SDS011;5592;49.234;7.268;2023-07-29T09:57:14;3.93;;;1.77;;
11078;SDS011;5592;49.234;7.268;2023-07-29T09:59:41;3.37;;;2.00;;
11078;SDS011;5592;49.234;7.268;2023-07-29T10:02:09;3.83;;;1.80;;
11078;SDS011;5592;49.234;7.268;2023-07-29T10:04:41;2.83;;;2.10;;
11078;SDS011;5592;49.234;7.268;2023-07-29T10:07:08;4.83;;;1.70;;
11078;SDS011;5592;49.234;7.268;2023-07-29T10:09:34;2.20;;;1.60;;
11078;SDS011;5592;49.234;7.268;2023-07-29T10:12:01;3.10;;;2.00;;
11078;SDS011;5592;49.234;7.268;2023-07-29T10:14:27;1.70;;;1.60;;
11078;SDS011;5592;49.234;7.268;2023-07-29T10:16:55;2.13;;;1.50;;
11078;SDS011;5592;49.234;7.268;2023-07-29T10:19:22;1.87;;;1.60;;
11078;SDS011;5592;49.234;7.268;2023-07-29T10:21:50;1.90;;;1.70;;
11078;SDS011;5592;49.234;7.268;2023-07-29T10:24:18;3.00;;;1.60;;
11078;SDS011;5592;49.234;7.268;2023-07-29T10:26:49;3.67;;;1.23;;
11078;SDS011;5592;49.234;7.268;2023-07-29T10:29:16;3.50;;;1.53;;
11078;SDS011;5592;49.234;7.268;2023-07-29T10:31:44;1.80;;;1.70;;
11078;SDS011;5592;49.234;7.268;2023-07-29T10:34:10;1.93;;;1.83;;
11078;SDS011;5592;49.234;7.268;2023-07-29T10:36:38;4.43;;;1.80;;
11078;SDS011;5592;49.234;7.268;2023-07-29T10:39:06;1.53;;;1.43;;
11078;SDS011;5592;49.234;7.268;2023-07-29T10:47:12;3.33;;;1.37;;
11078;SDS011;5592;49.234;7.268;2023-07-29T10:49:41;2.10;;;1.90;;
11078;SDS011;5592;49.234;7.268;2023-07-29T10:52:07;5.47;;;2.07;;
11078;SDS011;5592;49.234;7.268;2023-07-29T10:54:42;1.80;;;1.70;;
11078;SDS011;5592;49.234;7.268;2023-07-29T10:57:15;7.23;;;1.67;;
11078;SDS011;5592;49.234;7.268;2023-07-29T10:59:56;2.47;;;2.00;;
11078;SDS011;5592;49.234;7.268;2023-07-29T11:02:27;1.97;;;1.67;;
11078;SDS011;5592;49.234;7.268;2023-07-29T11:04:54;1.80;;;1.57;;
11078;SDS011;5592;49.234;7.268;2023-07-29T11:07:20;1.40;;;1.30;;
11078;SDS011;5592;49.234;7.268;2023-07-29T11:15:11;2.20;;;1.57;;
11078;SDS011;5592;49.234;7.268;2023-07-29T11:17:41;1.77;;;1.57;;
11078;SDS011;5592;49.234;7.268;2023-07-29T11:20:15;2.60;;;1.90;;
11078;SDS011;5592;49.234;7.268;2023-07-29T11:22:42;1.60;;;1.50;;
11078;SDS011;5592;49.234;7.268;2023-07-29T11:25:09;1.93;;;1.70;;
11078;SDS011;5592;49.234;7.268;2023-07-29T11:27:36;2.00;;;1.40;;
11078;SDS011;5592;49.234;7.268;2023-07-29T11:30:03;4.20;;;1.60;;
11078;SDS011;5592;49.234;7.268;2023-07-29T11:32:31;1.90;;;1.70;;
11078;SDS011;5592;49.234;7.268;2023-07-29T11:35:01;3.63;;;1.63;;
11078;SDS011;5592;49.234;7.268;2023-07-29T11:37:32;4.00;;;1.90;;
11078;SDS011;5592;49.234;7.268;2023-07-29T11:40:01;3.83;;;1.53;;
11078;SDS011;5592;49.234;7.268;2023-07-29T11:42:27;1.77;;;1.57;;
11078;SDS011;5592;49.234;7.268;2023-07-29T11:44:56;1.77;;;1.40;;
11078;SDS011;5592;49.234;7.268;2023-07-29T11:47:23;2.13;;;1.80;;
11078;SDS011;5592;49.234;7.268;2023-07-29T11:49:48;1.87;;;1.50;;
11078;SDS011;5592;49.234;7.268;2023-07-29T11:52:14;2.73;;;1.70;;
11078;SDS011;5592;49.234;7.268;2023-07-29T11:54:43;3.07;;;1.77;;
11078;SDS011;5592;49.234;7.268;2023-07-29T11:57:09;1.60;;;1.50;;
11078;SDS011;5592;49.234;7.268;2023-07-29T11:59:35;2.07;;;1.80;;
11078;SDS011;5592;49.234;7.268;2023-07-29T12:02:07;1.77;;;1.60;;
11078;SDS011;5592;49.234;7.268;2023-07-29T12:04:36;3.30;;;1.60;;
11078;SDS011;5592;49.234;7.268;2023-07-29T12:07:03;2.00;;;1.70;;
11078;SDS011;5592;49.234;7.268;2023-07-29T12:09:29;1.50;;;1.40;;
11078;SDS011;5592;49.234;7.268;2023-07-29T12:11:55;1.70;;;1.60;;
11078;SDS011;5592;49.234;7.268;2023-07-29T12:14:21;2.20;;;1.70;;
11078;SDS011;5592;49.234;7.268;2023-07-29T12:16:50;2.80;;;1.83;;
11078;SDS011;5592;49.234;7.268;2023-07-29T12:19:17;2.20;;;1.50;;
11078;SDS011;5592;49.234;7.268;2023-07-29T12:21:43;1.70;;;1.60;;
11078;SDS011;5592;49.234;7.268;2023-07-29T12:24:09;1.60;;;1.50;;
11078;SDS011;5592;49.234;7.268;2023-07-29T12:26:37;2.20;;;1.80;;
11078;SDS011;5592;49.234;7.268;2023-07-29T12:29:12;1.60;;;1.50;;
11078;SDS011;5592;49.234;7.268;2023-07-29T12:31:42;1.60;;;1.50;;
11078;SDS011;5592;49.234;7.268;2023-07-29T12:34:08;1.60;;;1.43;;
11078;SDS011;5592;49.234;7.268;2023-07-29T12:36:41;1.70;;;1.50;;
11078;SDS011;5592;49.234;7.268;2023-07-29T12:39:23;2.70;;;1.73;;
11078;SDS011;5592;49.234;7.268;2023-07-29T12:41:54;1.93;;;1.73;;
11078;SDS011;5592;49.234;7.268;2023-07-29T12:44:22;2.40;;;1.83;;
11078;SDS011;5592;49.234;7.268;2023-07-29T12:46:48;7.80;;;1.70;;
11078;SDS011;5592;49.234;7.268;2023-07-29T12:49:14;2.00;;;1.60;;
11078;SDS011;5592;49.234;7.268;2023-07-29T12:51:40;1.63;;;1.53;;
11078;SDS011;5592;49.234;7.268;2023-07-29T12:54:06;2.47;;;1.87;;
11078;SDS011;5592;49.234;7.268;2023-07-29T12:56:32;3.03;;;1.80;;
11078;SDS011;5592;49.234;7.268;2023-07-29T12:58:58;3.73;;;1.80;;
11078;SDS011;5592;49.234;7.268;2023-07-29T13:01:25;1.60;;;1.40;;
11078;SDS011;5592;49.234;7.268;2023-07-29T13:03:51;2.80;;;1.80;;
11078;SDS011;5592;49.234;7.268;2023-07-29T13:06:17;2.67;;;1.90;;
11078;SDS011;5592;49.234;7.268;2023-07-29T13:08:43;1.70;;;1.60;;
11078;SDS011;5592;49.234;7.268;2023-07-29T13:11:09;3.33;;;1.63;;
11078;SDS011;5592;49.234;7.268;2023-07-29T13:13:35;2.77;;;2.00;;
11078;SDS011;5592;49.234;7.268;2023-07-29T13:16:01;2.40;;;1.80;;
11078;SDS011;5592;49.234;7.268;2023-07-29T13:18:26;1.40;;;1.30;;
11078;SDS011;5592;49.234;7.268;2023-07-29T13:20:52;3.33;;;1.80;;
11078;SDS011;5592;49.234;7.268;2023-07-29T13:23:18;1.80;;;1.70;;
11078;SDS011;5592;49.234;7.268;2023-07-29T13:25:44;2.50;;;1.50;;
11078;SDS011;5592;49.234;7.268;2023-07-29T13:28:09;1.80;;;1.70;;
11078;SDS011;5592;49.234;7.268;2023-07-29T13:30:35;3.33;;;2.13;;
11078;SDS011;5592;49.234;7.268;2023-07-29T13:33:01;2.10;;;1.67;;
11078;SDS011;5592;49.234;7.268;2023-07-29T13:35:27;1.43;;;1.33;;
11078;SDS011;5592;49.234;7.268;2023-07-29T13:37:53;4.50;;;2.13;;
11078;SDS011;5592;49.234;7.268;2023-07-29T13:40:18;2.07;;;1.87;;
11078;SDS011;5592;49.234;7.268;2023-07-29T13:42:44;1.80;;;1.70;;
11078;SDS011;5592;49.234;7.268;2023-07-29T13:45:09;2.53;;;1.90;;
11078;SDS011;5592;49.234;7.268;2023-07-29T13:47:35;1.70;;;1.60;;
11078;SDS011;5592;49.234;7.268;2023-07-29T13:50:04;5.03;;;1.80;;
11078;SDS011;5592;49.234;7.268;2023-07-29T13:52:32;1.60;;;1.50;;
11078;SDS011;5592;49.234;7.268;2023-07-29T13:54:58;2.10;;;1.70;;
11078;SDS011;5592;49.234;7.268;2023-07-29T13:57:23;5.10;;;2.40;;
11078;SDS011;5592;49.234;7.268;2023-07-29T13:59:49;3.13;;;2.07;;
11078;SDS011;5592;49.234;7.268;2023-07-29T14:02:14;2.17;;;2.00;;
11078;SDS011;5592;49.234;7.268;2023-07-29T14:04:40;2.33;;;1.73;;
11078;SDS011;5592;49.234;7.268;2023-07-29T14:07:05;2.47;;;1.97;;
11078;SDS011;5592;49.234;7.268;2023-07-29T14:09:31;3.27;;;2.10;;
11078;SDS011;5592;49.234;7.268;2023-07-29T14:11:57;2.17;;;1.90;;
11078;SDS011;5592;49.234;7.268;2023-07-29T14:14:22;2.10;;;1.77;;
11078;SDS011;5592;49.234;7.268;2023-07-29T14:16:48;2.00;;;1.50;;
11078;SDS011;5592;49.234;7.268;2023-07-29T14:19:14;12.53;;;2.27;;
11078;SDS011;5592;49.234;7.268;2023-07-29T14:21:39;6.03;;;1.90;;
11078;SDS011;5592;49.234;7.268;2023-07-29T14:24:05;3.30;;;1.70;;
11078;SDS011;5592;49.234;7.268;2023-07-29T14:26:31;5.07;;;2.10;;
11078;SDS011;5592;49.234;7.268;2023-07-29T14:28:56;2.90;;;2.20;;
11078;SDS011;5592;49.234;7.268;2023-07-29T14:31:22;3.10;;;2.03;;
11078;SDS011;5592;49.234;7.268;2023-07-29T14:33:47;3.43;;;2.03;;
11078;SDS011;5592;49.234;7.268;2023-07-29T14:36:14;1.73;;;1.63;;
11078;SDS011;5592;49.234;7.268;2023-07-29T14:38:40;2.13;;;1.93;;
11078;SDS011;5592;49.234;7.268;2023-07-29T14:41:06;2.77;;;1.77;;
11078;SDS011;5592;49.234;7.268;2023-07-29T14:43:31;2.77;;;2.20;;
11078;SDS011;5592;49.234;7.268;2023-07-29T14:45:57;2.13;;;1.93;;
11078;SDS011;5592;49.234;7.268;2023-07-29T14:48:23;3.60;;;2.10;;
11078;SDS011;5592;49.234;7.268;2023-07-29T14:50:48;5.80;;;2.47;;
11078;SDS011;5592;49.234;7.268;2023-07-29T14:53:14;4.53;;;2.17;;
11078;SDS011;5592;49.234;7.268;2023-07-29T14:55:40;5.27;;;1.77;;
11078;SDS011;5592;49.234;7.268;2023-07-29T14:58:05;2.40;;;2.20;;
11078;SDS011;5592;49.234;7.268;2023-07-29T15:00:31;3.60;;;2.30;;
11078;SDS011;5592;49.234;7.268;2023-07-29T15:02:56;2.83;;;2.20;;
11078;SDS011;5592;49.234;7.268;2023-07-29T15:05:22;3.53;;;2.13;;
11078;SDS011;5592;49.234;7.268;2023-07-29T15:07:47;2.50;;;1.93;;
11078;SDS011;5592;49.234;7.268;2023-07-29T15:10:14;2.27;;;2.07;;
11078;SDS011;5592;49.234;7.268;2023-07-29T15:12:43;2.40;;;2.00;;